Aérodrome :
LOGIN :

S'inscrire | Disclaimer

   EN    FR    IT 

 










Légende :    VFR   VFR Marginal   IFR   IFR Intensif   IFR Très Intensif
Visi : 
Plafond : 
>= 8 km
>= 3000ft
5 à 8 km
1000 à 3000 ft
1500m à 5 km
500 à 1000 ft
800 à 1500m
200 à 500 ft
< 800m
< 200 ft
Symboles :   Orages  Brouillard  Fortes neiges  Fortes précipitations  Vent > 20 kt
SIGMETs :   Divers  Orages  Givrage  Turbulence  Onde Orograph.  Cendres Volcan.







- Altitude de l'aérodrome : 289 ft
- Code IATA : ZAD


LDZD - Zadar

DERNIER METAR :
  • 220030Z 07011KT 030V120 9999 -RA FEW020 BKN033 OVC050 04/01 Q1011

METARs EXPIRÉS :
  • 220000Z 07011KT 030V120 9999 -RA FEW020 BKN033 OVC050 04/01 Q1011
  • 212330Z 08011KT 030V120 9999 -RA FEW020 SCT030 OVC050 04/01 Q1011
  • 212300Z 07011KT 020V140 9999 SCT020 OVC030 04/01 Q1012
  • 212230Z 06010KT 010V110 9999 FEW020 SCT025 BKN040 04/01 Q1012
  • 212200Z 07010KT 020V120 9999 -RA FEW020 SCT025 BKN040 04/01 Q1012

TAF TAF LDZD
Valide du 22 à 00h jusqu'au 23 à 00h UTC


212325Z 2200/2300 07012KT 9999 BKN030 TX05/2213Z TN02/2204Z
PROB30
TEMPO 2203/2300 07015G25KT RA
Pas de NOTAMs connus pour ce terrain.



MET'MAP, la Météo Aéronautique d'un coup d'oeil ! - Copyright ORBIFLY Décembre 2007 - Disclaimer

ORBIFLY MET'MAP TEAM :

Programmation & Développement : Alexandra Zaïnal
Conception & Développement : Baudouin d'Aumeries
Co-Programmation & Développement : Marc-Olivier Méhu
Soutien technique & logistique : Manuel Goepfert

Contact : metmap@orbifly.com




SOURCES & CREDITS :

   NOAA